createdAt,value
2019-02-27T00:01:16.755Z,3.30
2019-02-27T00:03:44.575Z,3.20
2019-02-27T00:06:15.915Z,3.10
2019-02-27T00:08:44.454Z,3.10
2019-02-27T00:11:13.388Z,3.00
2019-02-27T00:13:42.170Z,2.90
2019-02-27T00:16:11.616Z,2.90
2019-02-27T00:18:40.462Z,2.90
2019-02-27T00:21:10.982Z,3.00
2019-02-27T00:23:39.903Z,3.20
2019-02-27T00:26:09.499Z,3.20
2019-02-27T00:28:38.555Z,3.20
2019-02-27T00:31:11.190Z,3.30
2019-02-27T00:33:38.705Z,3.30
2019-02-27T00:36:12.024Z,3.10
2019-02-27T00:38:38.634Z,3.00
2019-02-27T00:41:12.058Z,2.80
2019-02-27T00:43:38.687Z,2.70
2019-02-27T00:46:07.486Z,2.80
2019-02-27T00:48:36.317Z,2.70
2019-02-27T00:51:05.136Z,2.60
2019-02-27T00:53:33.954Z,2.60
2019-02-27T00:56:02.766Z,2.60
2019-02-27T00:58:31.590Z,2.50
2019-02-27T01:01:00.502Z,2.50
2019-02-27T01:03:29.316Z,2.40
2019-02-27T01:05:58.135Z,2.30
2019-02-27T01:08:27.649Z,2.20
2019-02-27T01:10:57.019Z,2.20
2019-02-27T01:13:26.048Z,2.20
2019-02-27T01:15:54.766Z,2.10
2019-02-27T01:18:23.627Z,2.20
2019-02-27T01:20:52.427Z,2.00
2019-02-27T01:23:21.284Z,2.00
2019-02-27T01:25:50.240Z,2.00
2019-02-27T01:28:19.432Z,2.10
2019-02-27T01:30:48.420Z,2.10
2019-02-27T01:33:17.184Z,2.10
2019-02-27T01:35:46.147Z,2.00
2019-02-27T01:38:15.329Z,1.90
2019-02-27T01:40:44.718Z,1.80
2019-02-27T01:43:13.620Z,1.80
2019-02-27T01:45:42.545Z,1.80
2019-02-27T01:48:11.824Z,1.80
2019-02-27T01:50:40.645Z,1.80
2019-02-27T01:53:10.243Z,1.80
2019-02-27T01:55:39.123Z,1.70
2019-02-27T01:58:09.505Z,1.60
2019-02-27T02:00:38.811Z,1.60
2019-02-27T02:03:07.823Z,1.60
2019-02-27T02:05:36.756Z,1.70
2019-02-27T02:08:07.855Z,1.70
2019-02-27T02:10:36.771Z,1.80
2019-02-27T02:13:33.126Z,1.70
2019-02-27T02:16:34.397Z,1.70
2019-02-27T02:19:39.341Z,1.50
2019-02-27T02:22:51.520Z,1.50
2019-02-27T02:25:42.094Z,1.60
2019-02-27T02:28:48.793Z,1.60
2019-02-27T02:31:55.762Z,1.60
2019-02-27T02:35:00.383Z,1.60
2019-02-27T02:38:17.145Z,1.60
2019-02-27T02:41:00.831Z,1.50
2019-02-27T02:44:29.072Z,1.40
2019-02-27T02:47:25.554Z,1.50
2019-02-27T02:50:45.156Z,1.30
2019-02-27T02:53:37.041Z,1.20
2019-02-27T02:56:31.050Z,1.20
2019-02-27T02:59:36.901Z,1.20
2019-02-27T03:02:23.543Z,1.20
2019-02-27T03:05:23.239Z,1.20
2019-02-27T03:08:19.814Z,1.20
2019-02-27T03:11:04.942Z,1.30
2019-02-27T03:14:30.313Z,1.20
2019-02-27T03:17:27.417Z,1.10
2019-02-27T03:20:17.605Z,1.00
2019-02-27T03:23:20.412Z,1.00
2019-02-27T03:26:16.539Z,1.00
2019-02-27T03:28:58.670Z,0.90
2019-02-27T03:31:57.890Z,0.80
2019-02-27T03:34:59.330Z,0.80
2019-02-27T03:38:02.292Z,0.80
2019-02-27T03:41:12.485Z,0.80
2019-02-27T03:44:23.011Z,0.70
2019-02-27T03:47:32.375Z,0.70
2019-02-27T03:50:28.577Z,0.70
2019-02-27T03:53:49.932Z,0.70
2019-02-27T03:56:50.362Z,0.60
2019-02-27T04:00:19.215Z,0.60
2019-02-27T04:03:34.832Z,0.60
2019-02-27T04:06:47.784Z,0.60
2019-02-27T04:09:19.825Z,0.60
2019-02-27T04:11:47.079Z,0.60
2019-02-27T04:14:29.650Z,0.50
2019-02-27T04:17:05.462Z,0.50
2019-02-27T04:19:29.389Z,0.60
2019-02-27T04:22:01.130Z,0.60
2019-02-27T04:24:28.954Z,0.50
2019-02-27T04:26:57.736Z,0.60
2019-02-27T04:29:26.553Z,0.50
2019-02-27T04:31:55.644Z,0.50
2019-02-27T04:34:24.659Z,0.40
2019-02-27T04:36:53.531Z,0.60
2019-02-27T04:39:22.558Z,0.50
2019-02-27T04:41:52.542Z,0.60
2019-02-27T04:44:21.574Z,0.50
2019-02-27T04:46:54.845Z,0.50
2019-02-27T04:49:20.951Z,0.40
2019-02-27T04:52:08.906Z,0.30
2019-02-27T04:54:41.346Z,0.30
2019-02-27T04:57:09.033Z,0.30
2019-02-27T04:59:37.982Z,0.30
2019-02-27T05:02:06.837Z,0.40
2019-02-27T05:04:35.890Z,0.40
2019-02-27T05:07:04.654Z,0.40
2019-02-27T05:09:34.177Z,0.30
2019-02-27T05:12:03.531Z,0.30
2019-02-27T05:14:32.670Z,0.30
2019-02-27T05:17:01.887Z,0.30
2019-02-27T05:19:30.657Z,0.40
2019-02-27T05:22:01.205Z,0.40
2019-02-27T05:24:30.087Z,0.50
2019-02-27T05:27:00.881Z,0.50
2019-02-27T05:29:30.140Z,0.50
2019-02-27T05:31:59.013Z,0.50
2019-02-27T05:34:27.790Z,0.50
2019-02-27T05:36:56.631Z,0.50
2019-02-27T05:39:25.612Z,0.50
2019-02-27T05:41:54.659Z,0.50
2019-02-27T05:44:23.663Z,0.50
2019-02-27T05:46:52.566Z,0.40
2019-02-27T05:49:21.385Z,0.50
2019-02-27T05:51:50.367Z,0.50
2019-02-27T05:54:19.099Z,0.50
2019-02-27T05:56:49.721Z,0.40
2019-02-27T05:59:19.395Z,0.40
2019-02-27T06:01:48.179Z,0.40
2019-02-27T06:04:18.197Z,0.30
2019-02-27T06:06:47.139Z,0.40
2019-02-27T06:09:16.402Z,0.40
2019-02-27T06:11:45.687Z,0.40
2019-02-27T06:14:24.623Z,0.40
2019-02-27T06:16:53.540Z,0.30
2019-02-27T06:19:22.499Z,0.30
2019-02-27T06:21:56.012Z,0.30
2019-02-27T06:24:21.892Z,0.30
2019-02-27T06:26:51.024Z,0.30
2019-02-27T06:29:23.269Z,0.30
2019-02-27T06:31:51.006Z,0.40
2019-02-27T06:34:22.381Z,0.40
2019-02-27T06:36:50.864Z,0.50
2019-02-27T06:39:19.652Z,0.50
2019-02-27T06:41:49.789Z,0.50
2019-02-27T06:44:19.148Z,0.50
2019-02-27T06:46:51.141Z,0.50
2019-02-27T06:49:19.739Z,0.60
2019-02-27T06:51:48.486Z,0.60
2019-02-27T06:54:18.375Z,0.60
2019-02-27T06:56:48.488Z,0.70
2019-02-27T06:59:18.113Z,0.70
2019-02-27T07:01:47.498Z,0.80
2019-02-27T07:04:17.614Z,0.90
2019-02-27T07:06:46.696Z,1.00
2019-02-27T07:09:15.596Z,1.00
2019-02-27T07:11:46.249Z,1.00
2019-02-27T07:14:15.091Z,1.10
2019-02-27T07:16:43.972Z,1.20
2019-02-27T07:19:13.217Z,1.30
2019-02-27T07:21:43.480Z,1.40
2019-02-27T07:24:12.398Z,1.50
2019-02-27T07:26:41.572Z,1.50
2019-02-27T07:29:10.780Z,1.60
2019-02-27T07:31:39.625Z,1.70
2019-02-27T07:34:08.621Z,1.90
2019-02-27T07:36:38.508Z,2.10
2019-02-27T07:39:08.051Z,2.20
2019-02-27T07:41:36.898Z,2.30
2019-02-27T07:44:05.875Z,2.40
2019-02-27T07:46:35.576Z,2.50
2019-02-27T07:49:04.545Z,2.70
2019-02-27T07:51:33.420Z,2.70
2019-02-27T07:54:03.930Z,2.80
2019-02-27T07:56:33.310Z,2.90
2019-02-27T07:59:02.109Z,3.10
2019-02-27T08:01:30.867Z,3.30
2019-02-27T08:03:59.806Z,3.40
2019-02-27T08:06:28.718Z,3.60
2019-02-27T08:08:57.856Z,3.70
2019-02-27T08:11:27.533Z,3.80
2019-02-27T08:13:56.642Z,4.00
2019-02-27T08:16:25.541Z,4.10
2019-02-27T08:18:54.354Z,4.30
2019-02-27T08:21:23.298Z,4.40
2019-02-27T08:23:52.121Z,4.50
2019-02-27T08:26:26.966Z,4.60
2019-02-27T08:28:55.986Z,4.70
2019-02-27T08:31:28.007Z,4.80
2019-02-27T08:33:56.293Z,5.00
2019-02-27T08:36:25.199Z,5.10
2019-02-27T08:38:54.557Z,5.30
2019-02-27T08:41:23.479Z,5.50
2019-02-27T08:43:52.491Z,5.70
2019-02-27T08:46:21.680Z,5.90
2019-02-27T08:48:50.753Z,5.90
2019-02-27T08:51:19.571Z,6.00
2019-02-27T08:53:48.381Z,6.30
2019-02-27T08:56:17.664Z,6.60
2019-02-27T08:58:46.540Z,7.20
2019-02-27T09:01:15.488Z,7.30
2019-02-27T09:03:44.715Z,7.70
2019-02-27T09:06:15.914Z,8.40
2019-02-27T09:08:44.400Z,9.30
2019-02-27T09:11:14.710Z,10.10
2019-02-27T09:13:43.970Z,10.90
2019-02-27T09:16:13.392Z,11.30
2019-02-27T09:18:44.108Z,12.00
2019-02-27T09:21:13.148Z,11.90
2019-02-27T09:23:42.239Z,11.80
2019-02-27T09:26:11.163Z,11.90
2019-02-27T09:28:44.067Z,12.10
2019-02-27T09:31:12.103Z,12.10
2019-02-27T09:33:41.716Z,13.30
2019-02-27T09:36:10.999Z,13.80
2019-02-27T09:38:40.789Z,13.40
2019-02-27T09:41:12.180Z,14.20
2019-02-27T09:43:40.312Z,13.30
2019-02-27T09:46:09.369Z,13.70
2019-02-27T09:48:43.132Z,14.00
2019-02-27T09:51:12.086Z,14.10
2019-02-27T09:53:41.576Z,15.00
2019-02-27T09:56:15.234Z,15.80
2019-02-27T09:58:45.646Z,15.80
2019-02-27T10:01:17.247Z,15.90
2019-02-27T10:03:46.246Z,15.50
2019-02-27T10:06:15.328Z,15.70
2019-02-27T10:08:44.315Z,16.10
2019-02-27T10:11:13.231Z,15.50
2019-02-27T10:13:42.047Z,16.40
2019-02-27T10:16:11.084Z,17.00
2019-02-27T10:18:40.005Z,17.90
2019-02-27T10:21:09.450Z,18.10
2019-02-27T10:23:39.742Z,17.20
2019-02-27T10:26:08.986Z,17.20
2019-02-27T10:28:39.635Z,17.50
2019-02-27T10:31:09.117Z,16.70
2019-02-27T10:33:37.871Z,16.70
2019-02-27T10:36:07.164Z,17.70
2019-02-27T10:38:40.272Z,17.60
2019-02-27T10:41:06.993Z,19.30
2019-02-27T10:43:35.887Z,19.80
2019-02-27T10:46:04.864Z,20.10
2019-02-27T10:48:33.674Z,19.50
2019-02-27T10:51:03.682Z,20.50
2019-02-27T10:53:32.783Z,20.40
2019-02-27T10:56:01.776Z,20.60
2019-02-27T10:58:30.596Z,21.30
2019-02-27T11:01:01.162Z,21.80
2019-02-27T11:03:29.988Z,20.20
2019-02-27T11:05:58.912Z,20.70
2019-02-27T11:08:29.547Z,21.20
2019-02-27T11:10:58.820Z,21.30
2019-02-27T11:13:27.700Z,20.10
2019-02-27T11:15:56.663Z,21.10
2019-02-27T11:18:25.792Z,21.80
2019-02-27T11:20:56.725Z,21.40
2019-02-27T11:23:25.843Z,21.70
2019-02-27T11:25:56.925Z,22.70
2019-02-27T11:28:25.944Z,23.30
2019-02-27T11:30:54.798Z,23.50
2019-02-27T11:33:25.884Z,23.50
2019-02-27T11:35:54.456Z,23.10
2019-02-27T11:38:24.782Z,22.80
2019-02-27T11:40:54.500Z,23.10
2019-02-27T11:43:23.439Z,23.60
2019-02-27T11:45:57.697Z,23.70
2019-02-27T11:48:24.078Z,23.40
2019-02-27T11:50:53.011Z,23.50
2019-02-27T11:53:21.890Z,22.50
2019-02-27T11:55:50.742Z,23.80
2019-02-27T11:58:19.879Z,24.00
2019-02-27T12:00:48.715Z,24.20
2019-02-27T12:03:17.894Z,24.50
2019-02-27T12:05:46.819Z,24.10
2019-02-27T12:08:15.868Z,24.10
2019-02-27T12:10:44.716Z,24.50
2019-02-27T12:13:14.039Z,24.50
2019-02-27T12:15:43.644Z,24.00
2019-02-27T12:18:13.178Z,24.30
2019-02-27T12:20:41.995Z,23.50
2019-02-27T12:23:10.922Z,23.60
2019-02-27T12:25:41.056Z,23.70
2019-02-27T12:28:10.208Z,23.80
2019-02-27T12:30:39.195Z,24.30
2019-02-27T12:33:08.229Z,24.30
2019-02-27T12:35:37.263Z,24.70
2019-02-27T12:38:08.093Z,23.50
2019-02-27T12:40:37.142Z,23.50
2019-02-27T12:43:06.142Z,23.90
2019-02-27T12:45:35.170Z,24.70
2019-02-27T12:48:04.246Z,24.70
2019-02-27T12:50:34.134Z,24.40
2019-02-27T12:53:03.000Z,24.20
2019-02-27T12:55:35.486Z,24.20
2019-02-27T12:58:02.400Z,23.80
2019-02-27T13:00:31.375Z,23.80
2019-02-27T13:03:00.138Z,24.30
2019-02-27T13:05:29.081Z,24.50
2019-02-27T13:07:57.926Z,24.30
2019-02-27T13:10:27.059Z,24.40
2019-02-27T13:12:56.036Z,23.70
2019-02-27T13:15:25.018Z,24.60
2019-02-27T13:17:57.650Z,24.40
2019-02-27T13:20:25.811Z,24.50
2019-02-27T13:22:54.628Z,24.60
2019-02-27T13:25:24.093Z,24.30
2019-02-27T13:27:53.716Z,24.30
2019-02-27T13:30:22.781Z,24.30
2019-02-27T13:32:51.756Z,24.50
2019-02-27T13:35:23.152Z,24.50
2019-02-27T13:37:51.547Z,24.50
2019-02-27T13:40:21.068Z,24.50
2019-02-27T13:42:52.348Z,24.00
2019-02-27T13:45:22.362Z,24.00
2019-02-27T13:47:51.378Z,24.20
2019-02-27T13:50:24.426Z,24.10
2019-02-27T13:52:51.986Z,24.40
2019-02-27T13:55:21.551Z,24.20
2019-02-27T13:57:50.757Z,24.20
2019-02-27T14:00:22.048Z,24.10
2019-02-27T14:02:51.247Z,24.30
2019-02-27T14:05:20.066Z,24.00
2019-02-27T14:07:49.212Z,23.90
2019-02-27T14:10:20.599Z,23.70
2019-02-27T14:12:48.866Z,23.70
2019-02-27T14:15:17.948Z,23.80
2019-02-27T14:17:46.771Z,23.80
2019-02-27T14:20:17.562Z,23.50
2019-02-27T14:22:46.541Z,23.70
2019-02-27T14:25:17.556Z,23.60
2019-02-27T14:27:47.430Z,23.50
2019-02-27T14:30:19.392Z,23.70
2019-02-27T14:32:48.732Z,23.60
2019-02-27T14:35:18.221Z,23.40
2019-02-27T14:37:49.943Z,23.10
2019-02-27T14:40:18.796Z,23.00
2019-02-27T14:42:54.039Z,22.90
2019-02-27T14:45:20.799Z,23.00
2019-02-27T14:47:50.144Z,23.50
2019-02-27T14:50:20.276Z,23.30
2019-02-27T14:52:49.992Z,23.30
2019-02-27T14:55:19.459Z,23.30
2019-02-27T14:57:51.023Z,23.00
2019-02-27T15:00:24.602Z,22.90
2019-02-27T15:02:55.580Z,22.60
2019-02-27T15:05:24.089Z,22.70
2019-02-27T15:07:54.616Z,22.20
2019-02-27T15:10:24.226Z,22.20
2019-02-27T15:12:55.041Z,22.00
2019-02-27T15:15:28.510Z,22.10
2019-02-27T15:17:57.690Z,21.90
2019-02-27T15:20:26.978Z,21.90
2019-02-27T15:22:55.920Z,21.70
2019-02-27T15:25:27.305Z,22.20
2019-02-27T15:27:58.826Z,21.80
2019-02-27T15:30:27.852Z,21.30
2019-02-27T15:32:56.630Z,21.10
2019-02-27T15:35:25.595Z,21.20
2019-02-27T15:37:54.586Z,20.70
2019-02-27T15:40:28.640Z,20.20
2019-02-27T15:42:55.094Z,19.80
2019-02-27T15:45:24.008Z,19.40
2019-02-27T15:47:52.837Z,18.70
2019-02-27T15:50:23.438Z,18.10
2019-02-27T15:52:52.534Z,17.30
2019-02-27T15:55:21.291Z,16.70
2019-02-27T15:57:53.741Z,16.50
2019-02-27T16:00:22.418Z,16.40
2019-02-27T16:02:52.261Z,16.40
2019-02-27T16:05:21.570Z,16.30
2019-02-27T16:07:50.878Z,16.00
2019-02-27T16:10:21.300Z,16.00
2019-02-27T16:12:50.854Z,15.70
2019-02-27T16:15:19.919Z,15.60
2019-02-27T16:17:49.024Z,15.70
2019-02-27T16:20:18.595Z,15.50
2019-02-27T16:22:48.516Z,15.20
2019-02-27T16:25:19.961Z,15.00
2019-02-27T16:27:49.056Z,15.00
2019-02-27T16:30:23.170Z,14.90
2019-02-27T16:32:52.114Z,14.70
2019-02-27T16:35:21.285Z,14.40
2019-02-27T16:37:56.601Z,14.10
2019-02-27T16:40:21.686Z,14.00
2019-02-27T16:42:51.284Z,13.90
2019-02-27T16:45:22.564Z,13.80
2019-02-27T16:47:54.018Z,13.70
2019-02-27T16:50:24.781Z,13.60
2019-02-27T16:52:54.368Z,13.50
2019-02-27T16:55:23.786Z,13.20
2019-02-27T16:57:57.887Z,13.10
2019-02-27T17:00:28.719Z,13.10
2019-02-27T17:02:57.834Z,13.10
2019-02-27T17:05:26.871Z,13.00
2019-02-27T17:08:00.260Z,12.90
2019-02-27T17:10:29.356Z,12.60
2019-02-27T17:12:58.800Z,12.30
2019-02-27T17:15:27.705Z,12.20
2019-02-27T17:17:56.669Z,12.20
2019-02-27T17:20:25.799Z,12.30
2019-02-27T17:22:54.686Z,12.30
2019-02-27T17:25:28.681Z,12.30
2019-02-27T17:27:54.057Z,12.10
2019-02-27T17:30:25.132Z,12.30
2019-02-27T17:32:54.241Z,12.20
2019-02-27T17:35:23.564Z,12.00
2019-02-27T17:37:53.195Z,12.10
2019-02-27T17:40:22.246Z,12.10
2019-02-27T17:42:53.590Z,12.10
2019-02-27T17:45:21.814Z,12.10
2019-02-27T17:47:50.825Z,12.20
2019-02-27T17:50:19.738Z,12.10
2019-02-27T17:52:49.747Z,12.00
2019-02-27T17:55:18.807Z,11.90
2019-02-27T17:57:47.802Z,11.70
2019-02-27T18:00:28.374Z,11.60
2019-02-27T18:02:56.655Z,11.50
2019-02-27T18:05:26.229Z,11.40
2019-02-27T18:07:55.342Z,11.30
2019-02-27T18:10:24.070Z,11.30
2019-02-27T18:12:52.840Z,11.10
2019-02-27T18:15:21.747Z,10.90
2019-02-27T18:17:50.983Z,10.60
2019-02-27T18:20:24.541Z,10.50
2019-02-27T18:22:50.640Z,10.40
2019-02-27T18:25:19.785Z,10.30
2019-02-27T18:27:48.625Z,10.10
2019-02-27T18:30:18.878Z,9.90
2019-02-27T18:32:49.690Z,9.80
2019-02-27T18:35:18.745Z,9.80
2019-02-27T18:37:53.201Z,9.70
2019-02-27T18:40:18.922Z,9.60
2019-02-27T18:42:47.986Z,9.60
2019-02-27T18:45:17.036Z,9.70
2019-02-27T18:48:07.341Z,9.80
2019-02-27T18:50:35.932Z,9.60
2019-02-27T18:53:04.936Z,9.20
2019-02-27T18:55:34.022Z,9.20
2019-02-27T18:58:03.097Z,9.00
2019-02-27T19:00:33.393Z,8.90
2019-02-27T19:03:04.438Z,8.80
2019-02-27T19:05:33.818Z,8.80
2019-02-27T19:08:02.922Z,8.80
2019-02-27T19:10:31.997Z,8.60
2019-02-27T19:13:01.193Z,8.40
2019-02-27T19:15:30.208Z,8.30
2019-02-27T19:17:59.325Z,8.20
2019-02-27T19:20:29.258Z,8.10
2019-02-27T19:23:00.261Z,8.00
2019-02-27T19:25:34.301Z,8.20
2019-02-27T19:27:59.562Z,8.10
2019-02-27T19:30:28.561Z,8.00
2019-02-27T19:33:01.502Z,7.80
2019-02-27T19:35:28.388Z,7.70
2019-02-27T19:37:57.800Z,7.60
2019-02-27T19:40:29.876Z,7.50
2019-02-27T19:42:59.595Z,7.60
2019-02-27T19:45:28.644Z,7.70
2019-02-27T19:47:57.795Z,7.80
2019-02-27T19:50:26.992Z,7.80
2019-02-27T19:52:56.195Z,7.70
2019-02-27T19:55:27.429Z,7.80
2019-02-27T19:57:55.694Z,7.90
2019-02-27T20:00:26.437Z,7.60
2019-02-27T20:02:59.311Z,7.40
2019-02-27T20:05:26.144Z,7.30
2019-02-27T20:07:55.256Z,7.30
2019-02-27T20:10:29.098Z,7.30
2019-02-27T20:12:55.496Z,7.20
2019-02-27T20:15:24.495Z,7.00
2019-02-27T20:17:53.825Z,7.00
2019-02-27T20:20:22.855Z,7.10
2019-02-27T20:22:53.489Z,7.00
2019-02-27T20:25:23.600Z,6.90
2019-02-27T20:27:53.040Z,6.80
2019-02-27T20:30:22.340Z,6.70
2019-02-27T20:32:51.447Z,6.60
2019-02-27T20:35:20.672Z,6.60
2019-02-27T20:37:51.052Z,6.60
2019-02-27T20:40:20.162Z,6.50
2019-02-27T20:42:52.107Z,6.60
2019-02-27T20:45:20.099Z,6.50
2019-02-27T20:47:49.010Z,6.40
2019-02-27T20:50:21.825Z,6.30
2019-02-27T20:52:51.240Z,6.30
2019-02-27T20:55:20.015Z,6.20
2019-02-27T20:57:49.552Z,6.20
2019-02-27T21:00:18.898Z,6.10
2019-02-27T21:02:50.337Z,6.10
2019-02-27T21:05:18.764Z,6.00
2019-02-27T21:07:47.664Z,6.10
2019-02-27T21:10:20.850Z,6.00
2019-02-27T21:12:54.037Z,5.90
2019-02-27T21:15:19.747Z,5.90
2019-02-27T21:17:48.618Z,5.90
2019-02-27T21:20:17.515Z,5.70
2019-02-27T21:22:46.600Z,5.70
2019-02-27T21:25:15.740Z,5.60
2019-02-27T21:27:44.630Z,5.50
2019-02-27T21:30:17.818Z,5.50
2019-02-27T21:32:45.673Z,5.40
2019-02-27T21:35:14.534Z,5.40
2019-02-27T21:37:45.512Z,5.40
2019-02-27T21:40:14.591Z,5.40
2019-02-27T21:42:43.952Z,5.30
2019-02-27T21:45:14.687Z,5.30
2019-02-27T21:47:44.009Z,5.20
2019-02-27T21:50:14.835Z,5.10
2019-02-27T21:52:43.744Z,5.10
2019-02-27T21:55:13.634Z,5.10
2019-02-27T21:57:43.006Z,5.20
2019-02-27T22:00:14.746Z,5.20
2019-02-27T22:02:43.960Z,5.20
2019-02-27T22:05:18.489Z,5.10
2019-02-27T22:07:43.439Z,5.10
2019-02-27T22:10:12.776Z,5.00
2019-02-27T22:12:41.971Z,4.90
2019-02-27T22:15:21.884Z,4.80
2019-02-27T22:17:47.075Z,4.80
2019-02-27T22:20:15.978Z,4.70
2019-02-27T22:22:44.774Z,4.70
2019-02-27T22:25:13.794Z,4.60
2019-02-27T22:27:43.320Z,4.60
2019-02-27T22:30:14.892Z,4.60
2019-02-27T22:32:47.517Z,4.50
2019-02-27T22:35:14.255Z,4.50
2019-02-27T22:37:43.412Z,4.50
2019-02-27T22:40:14.964Z,4.50
2019-02-27T22:42:45.580Z,4.40
2019-02-27T22:45:15.439Z,4.30
2019-02-27T22:47:44.938Z,4.20
2019-02-27T22:50:14.828Z,4.20
2019-02-27T22:52:43.769Z,4.30
2019-02-27T22:55:12.778Z,4.20
2019-02-27T22:57:41.555Z,4.20
2019-02-27T23:00:56.366Z,4.20
2019-02-27T23:03:27.416Z,4.10
2019-02-27T23:05:56.715Z,4.00
2019-02-27T23:08:25.770Z,4.00
2019-02-27T23:10:55.371Z,4.00
2019-02-27T23:13:24.377Z,3.90
2019-02-27T23:15:57.968Z,3.90
2019-02-27T23:18:23.870Z,3.90
2019-02-27T23:20:55.369Z,3.90
2019-02-27T23:23:23.507Z,3.80
2019-02-27T23:25:52.648Z,3.80
2019-02-27T23:28:21.484Z,3.70
2019-02-27T23:30:50.623Z,3.70
2019-02-27T23:33:19.378Z,3.60
2019-02-27T23:35:50.263Z,3.60
2019-02-27T23:38:18.718Z,3.60
2019-02-27T23:40:49.032Z,3.60
2019-02-27T23:43:19.717Z,3.60
2019-02-27T23:45:48.761Z,3.50
2019-02-27T23:48:17.762Z,3.60
2019-02-27T23:50:46.560Z,3.50
2019-02-27T23:53:15.428Z,3.50
2019-02-27T23:55:45.396Z,3.50
2019-02-27T23:58:14.411Z,3.50
